sensor_id;sensor_type;location;lat;lon;timestamp;pressure;altitude;pressure_sealevel;temperature;humidity
35507;BME280;36461;52.018;21.036;2023-03-18T00:01:09;100855.31;;;1.93;59.67
35507;BME280;36461;52.018;21.036;2023-03-18T00:03:38;100859.41;;;1.92;59.50
35507;BME280;36461;52.018;21.036;2023-03-18T00:06:12;100857.20;;;1.93;59.55
35507;BME280;36461;52.018;21.036;2023-03-18T00:08:41;100855.80;;;1.91;59.67
35507;BME280;36461;52.018;21.036;2023-03-18T00:11:10;100857.15;;;1.90;59.72
35507;BME280;36461;52.018;21.036;2023-03-18T00:13:40;100851.84;;;1.88;59.49
35507;BME280;36461;52.018;21.036;2023-03-18T00:16:10;100853.39;;;1.89;59.48
35507;BME280;36461;52.018;21.036;2023-03-18T00:18:38;100855.41;;;1.87;59.71
35507;BME280;36461;52.018;21.036;2023-03-18T00:21:07;100856.58;;;1.85;59.32
35507;BME280;36461;52.018;21.036;2023-03-18T00:23:36;100858.11;;;1.84;59.60
35507;BME280;36461;52.018;21.036;2023-03-18T00:26:05;100855.20;;;1.83;59.43
35507;BME280;36461;52.018;21.036;2023-03-18T00:28:37;100853.81;;;1.81;59.76
35507;BME280;36461;52.018;21.036;2023-03-18T00:31:08;100853.11;;;1.80;59.62
35507;BME280;36461;52.018;21.036;2023-03-18T00:33:38;100849.70;;;1.80;59.48
35507;BME280;36461;52.018;21.036;2023-03-18T00:36:14;100847.48;;;1.79;59.50
35507;BME280;36461;52.018;21.036;2023-03-18T00:38:43;100848.15;;;1.78;59.33
35507;BME280;36461;52.018;21.036;2023-03-18T00:41:12;100845.22;;;1.75;59.52
35507;BME280;36461;52.018;21.036;2023-03-18T00:43:46;100841.64;;;1.75;59.72
35507;BME280;36461;52.018;21.036;2023-03-18T00:46:29;100837.33;;;1.72;59.58
35507;BME280;36461;52.018;21.036;2023-03-18T00:48:59;100835.95;;;1.70;59.48
35507;BME280;36461;52.018;21.036;2023-03-18T00:51:33;100831.31;;;1.67;59.55
35507;BME280;36461;52.018;21.036;2023-03-18T00:54:04;100828.56;;;1.66;59.46
35507;BME280;36461;52.018;21.036;2023-03-18T00:56:34;100826.52;;;1.65;59.64
35507;BME280;36461;52.018;21.036;2023-03-18T00:59:05;100820.17;;;1.63;59.65
35507;BME280;36461;52.018;21.036;2023-03-18T01:01:35;100823.90;;;1.62;59.67
35507;BME280;36461;52.018;21.036;2023-03-18T01:04:04;100823.05;;;1.62;59.57
35507;BME280;36461;52.018;21.036;2023-03-18T01:06:34;100817.57;;;1.59;59.67
35507;BME280;36461;52.018;21.036;2023-03-18T01:09:06;100816.52;;;1.57;59.62
35507;BME280;36461;52.018;21.036;2023-03-18T01:11:35;100817.87;;;1.56;59.71
35507;BME280;36461;52.018;21.036;2023-03-18T01:14:03;100817.84;;;1.53;59.61
35507;BME280;36461;52.018;21.036;2023-03-18T01:16:31;100809.80;;;1.50;59.68
35507;BME280;36461;52.018;21.036;2023-03-18T01:18:59;100809.61;;;1.50;59.73
35507;BME280;36461;52.018;21.036;2023-03-18T01:21:27;100805.48;;;1.47;59.64
35507;BME280;36461;52.018;21.036;2023-03-18T01:23:58;100804.43;;;1.45;59.73
35507;BME280;36461;52.018;21.036;2023-03-18T01:26:28;100798.27;;;1.43;59.95
35507;BME280;36461;52.018;21.036;2023-03-18T01:28:57;100790.92;;;1.42;59.82
35507;BME280;36461;52.018;21.036;2023-03-18T01:31:27;100785.98;;;1.43;59.81
35507;BME280;36461;52.018;21.036;2023-03-18T01:33:59;100783.77;;;1.42;59.59
35507;BME280;36461;52.018;21.036;2023-03-18T01:36:28;100781.02;;;1.40;59.85
35507;BME280;36461;52.018;21.036;2023-03-18T01:39:03;100778.77;;;1.38;59.82
35507;BME280;36461;52.018;21.036;2023-03-18T01:41:33;100778.42;;;1.36;60.17
35507;BME280;36461;52.018;21.036;2023-03-18T01:44:11;100779.41;;;1.34;59.84
35507;BME280;36461;52.018;21.036;2023-03-18T01:46:43;100779.39;;;1.32;59.72
35507;BME280;36461;52.018;21.036;2023-03-18T01:49:31;100778.34;;;1.31;59.90
35507;BME280;36461;52.018;21.036;2023-03-18T01:52:26;100775.59;;;1.29;59.72
35507;BME280;36461;52.018;21.036;2023-03-18T01:55:03;100774.73;;;1.28;59.93
35507;BME280;36461;52.018;21.036;2023-03-18T01:57:33;100774.56;;;1.28;59.89
35507;BME280;36461;52.018;21.036;2023-03-18T02:00:04;100777.29;;;1.28;59.81
35507;BME280;36461;52.018;21.036;2023-03-18T02:02:42;100776.95;;;1.27;60.16
35507;BME280;36461;52.018;21.036;2023-03-18T02:05:15;100775.23;;;1.27;60.03
35507;BME280;36461;52.018;21.036;2023-03-18T02:07:44;100777.64;;;1.28;60.03
35507;BME280;36461;52.018;21.036;2023-03-18T02:10:26;100779.83;;;1.27;60.01
35507;BME280;36461;52.018;21.036;2023-03-18T02:12:58;100780.66;;;1.25;59.86
35507;BME280;36461;52.018;21.036;2023-03-18T02:15:37;100776.89;;;1.24;59.96
35507;BME280;36461;52.018;21.036;2023-03-18T02:18:08;100779.27;;;1.22;60.00
35507;BME280;36461;52.018;21.036;2023-03-18T02:28:51;100770.01;;;1.18;59.98
35507;BME280;36461;52.018;21.036;2023-03-18T02:31:21;100768.96;;;1.16;60.06
35507;BME280;36461;52.018;21.036;2023-03-18T02:33:49;100773.38;;;1.15;60.11
35507;BME280;36461;52.018;21.036;2023-03-18T02:36:21;100771.30;;;1.12;59.98
35507;BME280;36461;52.018;21.036;2023-03-18T02:38:51;100772.64;;;1.11;60.10
35507;BME280;36461;52.018;21.036;2023-03-18T02:41:26;100770.26;;;1.11;60.08
35507;BME280;36461;52.018;21.036;2023-03-18T02:43:56;100770.08;;;1.09;60.13
35507;BME280;36461;52.018;21.036;2023-03-18T02:46:27;100770.38;;;1.07;60.20
35507;BME280;36461;52.018;21.036;2023-03-18T02:49:00;100767.45;;;1.05;60.04
35507;BME280;36461;52.018;21.036;2023-03-18T02:51:29;100769.98;;;1.03;60.17
35507;BME280;36461;52.018;21.036;2023-03-18T02:54:02;100766.05;;;1.01;60.29
35507;BME280;36461;52.018;21.036;2023-03-18T02:56:32;100764.64;;;0.98;60.30
35507;BME280;36461;52.018;21.036;2023-03-18T02:59:00;100767.00;;;0.96;60.24
35507;BME280;36461;52.018;21.036;2023-03-18T03:01:30;100766.83;;;0.96;60.35
35507;BME280;36461;52.018;21.036;2023-03-18T03:04:00;100763.92;;;0.95;60.19
35507;BME280;36461;52.018;21.036;2023-03-18T03:06:29;100760.51;;;0.95;60.23
35507;BME280;36461;52.018;21.036;2023-03-18T03:08:58;100754.73;;;0.95;60.41
35507;BME280;36461;52.018;21.036;2023-03-18T03:11:27;100753.53;;;0.95;60.57
35507;BME280;36461;52.018;21.036;2023-03-18T03:13:59;100747.02;;;0.93;60.39
35507;BME280;36461;52.018;21.036;2023-03-18T03:16:29;100751.79;;;0.92;60.28
35507;BME280;36461;52.018;21.036;2023-03-18T03:18:58;100749.89;;;0.91;60.28
35507;BME280;36461;52.018;21.036;2023-03-18T03:21:26;100746.29;;;0.89;60.60
35507;BME280;36461;52.018;21.036;2023-03-18T03:23:56;100751.53;;;0.87;60.42
35507;BME280;36461;52.018;21.036;2023-03-18T03:26:23;100748.98;;;0.87;60.33
35507;BME280;36461;52.018;21.036;2023-03-18T03:28:52;100745.41;;;0.86;60.36
35507;BME280;36461;52.018;21.036;2023-03-18T03:31:21;100743.17;;;0.85;60.23
35507;BME280;36461;52.018;21.036;2023-03-18T03:33:49;100742.47;;;0.84;60.35
35507;BME280;36461;52.018;21.036;2023-03-18T03:36:18;100749.29;;;0.83;60.37
35507;BME280;36461;52.018;21.036;2023-03-18T03:38:46;100742.27;;;0.81;60.32
35507;BME280;36461;52.018;21.036;2023-03-18T03:41:15;100742.91;;;0.79;60.40
35507;BME280;36461;52.018;21.036;2023-03-18T03:43:43;100739.50;;;0.78;60.44
35507;BME280;36461;52.018;21.036;2023-03-18T03:46:12;100741.34;;;0.76;60.39
35507;BME280;36461;52.018;21.036;2023-03-18T03:48:40;100744.04;;;0.74;60.39
35507;BME280;36461;52.018;21.036;2023-03-18T03:51:11;100743.66;;;0.72;60.50
35507;BME280;36461;52.018;21.036;2023-03-18T03:53:39;100744.33;;;0.72;60.50
35507;BME280;36461;52.018;21.036;2023-03-18T03:56:07;100745.02;;;0.71;60.73
35507;BME280;36461;52.018;21.036;2023-03-18T03:58:36;100742.25;;;0.68;60.53
35507;BME280;36461;52.018;21.036;2023-03-18T04:01:04;100741.39;;;0.67;60.52
35507;BME280;36461;52.018;21.036;2023-03-18T04:03:33;100742.22;;;0.66;60.71
35507;BME280;36461;52.018;21.036;2023-03-18T04:06:05;100738.79;;;0.64;60.43
35507;BME280;36461;52.018;21.036;2023-03-18T04:08:34;100739.11;;;0.63;60.44
35507;BME280;36461;52.018;21.036;2023-03-18T04:11:02;100743.02;;;0.61;60.41
35507;BME280;36461;52.018;21.036;2023-03-18T04:13:31;100745.17;;;0.58;60.50
35507;BME280;36461;52.018;21.036;2023-03-18T04:15:59;100750.80;;;0.57;60.70
35507;BME280;36461;52.018;21.036;2023-03-18T04:18:27;100749.89;;;0.54;60.59
35507;BME280;36461;52.018;21.036;2023-03-18T04:20:56;100756.83;;;0.51;60.71
35507;BME280;36461;52.018;21.036;2023-03-18T04:23:40;100756.79;;;0.48;60.66
35507;BME280;36461;52.018;21.036;2023-03-18T04:26:08;100752.50;;;0.46;60.68
35507;BME280;36461;52.018;21.036;2023-03-18T04:28:37;100749.77;;;0.45;60.89
35507;BME280;36461;52.018;21.036;2023-03-18T04:31:06;100748.25;;;0.46;60.83
35507;BME280;36461;52.018;21.036;2023-03-18T04:33:34;100742.81;;;0.47;60.90
35507;BME280;36461;52.018;21.036;2023-03-18T04:36:02;100742.49;;;0.48;60.80
35507;BME280;36461;52.018;21.036;2023-03-18T04:38:32;100744.02;;;0.48;60.86
35507;BME280;36461;52.018;21.036;2023-03-18T04:41:00;100748.45;;;0.47;60.68
35507;BME280;36461;52.018;21.036;2023-03-18T04:43:29;100755.06;;;0.47;60.84
35507;BME280;36461;52.018;21.036;2023-03-18T04:45:57;100755.06;;;0.47;60.92
35507;BME280;36461;52.018;21.036;2023-03-18T04:48:25;100759.50;;;0.46;61.25
35507;BME280;36461;52.018;21.036;2023-03-18T04:50:55;100761.34;;;0.45;60.93
35507;BME280;36461;52.018;21.036;2023-03-18T04:53:25;100764.91;;;0.44;61.01
35507;BME280;36461;52.018;21.036;2023-03-18T04:55:53;100769.16;;;0.45;60.90
35507;BME280;36461;52.018;21.036;2023-03-18T04:58:24;100766.63;;;0.46;60.80
35507;BME280;36461;52.018;21.036;2023-03-18T05:01:10;100761.90;;;0.48;60.81
35507;BME280;36461;52.018;21.036;2023-03-18T05:03:40;100762.10;;;0.50;60.97
35507;BME280;36461;52.018;21.036;2023-03-18T05:06:18;100760.92;;;0.51;61.01
35507;BME280;36461;52.018;21.036;2023-03-18T05:08:55;100759.89;;;0.52;61.22
35507;BME280;36461;52.018;21.036;2023-03-18T05:11:25;100757.70;;;0.53;61.04
35507;BME280;36461;52.018;21.036;2023-03-18T05:13:54;100757.77;;;0.58;60.89
35507;BME280;36461;52.018;21.036;2023-03-18T05:16:23;100754.59;;;0.61;60.85
35507;BME280;36461;52.018;21.036;2023-03-18T05:18:51;100754.62;;;0.63;60.83
35507;BME280;36461;52.018;21.036;2023-03-18T05:21:20;100751.77;;;0.66;61.10
35507;BME280;36461;52.018;21.036;2023-03-18T05:23:48;100753.51;;;0.69;60.99
35507;BME280;36461;52.018;21.036;2023-03-18T05:26:16;100753.72;;;0.72;60.65
35507;BME280;36461;52.018;21.036;2023-03-18T05:28:45;100753.77;;;0.76;61.21
35507;BME280;36461;52.018;21.036;2023-03-18T05:31:29;100755.67;;;0.78;61.22
35507;BME280;36461;52.018;21.036;2023-03-18T05:33:58;100758.11;;;0.81;61.09
35507;BME280;36461;52.018;21.036;2023-03-18T05:36:27;100754.10;;;0.88;61.09
35507;BME280;36461;52.018;21.036;2023-03-18T05:39:02;100751.27;;;0.92;61.02
35507;BME280;36461;52.018;21.036;2023-03-18T05:41:30;100747.23;;;0.95;60.76
35507;BME280;36461;52.018;21.036;2023-03-18T05:43:59;100744.89;;;0.99;60.90
35507;BME280;36461;52.018;21.036;2023-03-18T05:46:27;100740.18;;;1.05;60.91
35507;BME280;36461;52.018;21.036;2023-03-18T05:49:06;100736.33;;;1.10;60.91
35507;BME280;36461;52.018;21.036;2023-03-18T05:51:45;100737.94;;;1.16;60.63
35507;BME280;36461;52.018;21.036;2023-03-18T05:54:18;100738.84;;;1.21;60.87
35507;BME280;36461;52.018;21.036;2023-03-18T05:56:46;100737.55;;;1.26;60.97
35507;BME280;36461;52.018;21.036;2023-03-18T05:59:14;100732.84;;;1.32;60.77
35507;BME280;36461;52.018;21.036;2023-03-18T06:01:48;100735.83;;;1.40;60.71
35507;BME280;36461;52.018;21.036;2023-03-18T06:04:17;100729.76;;;1.46;60.60
35507;BME280;36461;52.018;21.036;2023-03-18T06:06:46;100735.13;;;1.55;60.27
35507;BME280;36461;52.018;21.036;2023-03-18T06:09:15;100734.03;;;1.65;60.08
35507;BME280;36461;52.018;21.036;2023-03-18T06:11:44;100731.91;;;1.75;59.86
35507;BME280;36461;52.018;21.036;2023-03-18T06:14:12;100738.66;;;1.85;59.98
35507;BME280;36461;52.018;21.036;2023-03-18T06:16:41;100743.86;;;1.94;60.05
35507;BME280;36461;52.018;21.036;2023-03-18T06:19:11;100751.45;;;2.03;59.46
35507;BME280;36461;52.018;21.036;2023-03-18T06:21:40;100744.20;;;2.13;59.69
35507;BME280;36461;52.018;21.036;2023-03-18T06:24:09;100739.33;;;2.22;59.03
35507;BME280;36461;52.018;21.036;2023-03-18T06:26:37;100737.69;;;2.32;59.18
35507;BME280;36461;52.018;21.036;2023-03-18T06:29:06;100737.59;;;2.42;59.20
35507;BME280;36461;52.018;21.036;2023-03-18T06:31:35;100738.68;;;2.52;58.79
35507;BME280;36461;52.018;21.036;2023-03-18T06:34:04;100735.84;;;2.63;58.76
35507;BME280;36461;52.018;21.036;2023-03-18T06:36:34;100736.24;;;2.74;58.30
35507;BME280;36461;52.018;21.036;2023-03-18T06:39:04;100733.39;;;2.84;58.06
35507;BME280;36461;52.018;21.036;2023-03-18T06:41:32;100733.11;;;2.96;58.05
35507;BME280;36461;52.018;21.036;2023-03-18T06:44:23;100731.97;;;3.09;57.50
35507;BME280;36461;52.018;21.036;2023-03-18T06:46:54;100732.87;;;3.20;57.51
35507;BME280;36461;52.018;21.036;2023-03-18T06:49:23;100739.23;;;3.30;56.99
35507;BME280;36461;52.018;21.036;2023-03-18T06:51:55;100738.92;;;3.40;56.56
35507;BME280;36461;52.018;21.036;2023-03-18T06:54:23;100746.65;;;3.49;56.22
35507;BME280;36461;52.018;21.036;2023-03-18T06:56:52;100738.80;;;3.58;56.18
35507;BME280;36461;52.018;21.036;2023-03-18T06:59:22;100735.39;;;3.67;56.21
35507;BME280;36461;52.018;21.036;2023-03-18T07:01:50;100731.98;;;3.78;56.35
35507;BME280;36461;52.018;21.036;2023-03-18T07:04:19;100737.98;;;3.88;56.04
35507;BME280;36461;52.018;21.036;2023-03-18T07:06:47;100735.59;;;3.98;55.78
35507;BME280;36461;52.018;21.036;2023-03-18T07:09:16;100737.99;;;4.07;55.25
35507;BME280;36461;52.018;21.036;2023-03-18T07:11:50;100733.37;;;4.16;54.87
35507;BME280;36461;52.018;21.036;2023-03-18T07:14:20;100734.22;;;4.25;54.72
35507;BME280;36461;52.018;21.036;2023-03-18T07:16:49;100736.96;;;4.31;54.66
35507;BME280;36461;52.018;21.036;2023-03-18T07:19:17;100739.35;;;4.40;54.79
35507;BME280;36461;52.018;21.036;2023-03-18T07:21:46;100741.91;;;4.48;54.51
35507;BME280;36461;52.018;21.036;2023-03-18T07:24:14;100741.73;;;4.58;54.47
35507;BME280;36461;52.018;21.036;2023-03-18T07:26:43;100744.80;;;4.66;54.02
35507;BME280;36461;52.018;21.036;2023-03-18T07:29:12;100745.46;;;4.73;54.12
35507;BME280;36461;52.018;21.036;2023-03-18T07:31:39;100745.27;;;4.80;53.55
35507;BME280;36461;52.018;21.036;2023-03-18T07:34:08;100746.46;;;4.87;53.33
35507;BME280;36461;52.018;21.036;2023-03-18T07:36:36;100746.27;;;4.93;53.13
35507;BME280;36461;52.018;21.036;2023-03-18T07:39:06;100741.98;;;4.99;52.87
35507;BME280;36461;52.018;21.036;2023-03-18T07:41:35;100747.78;;;5.06;52.51
35507;BME280;36461;52.018;21.036;2023-03-18T07:44:05;100748.09;;;5.14;52.34
35507;BME280;36461;52.018;21.036;2023-03-18T07:46:34;100745.14;;;5.19;52.31
35507;BME280;36461;52.018;21.036;2023-03-18T07:49:02;100749.93;;;5.25;52.21
35507;BME280;36461;52.018;21.036;2023-03-18T07:51:30;100749.73;;;5.29;51.83
35507;BME280;36461;52.018;21.036;2023-03-18T07:53:58;100752.64;;;5.34;51.81
35507;BME280;36461;52.018;21.036;2023-03-18T07:56:26;100751.92;;;5.39;51.54
35507;BME280;36461;52.018;21.036;2023-03-18T07:58:54;100752.92;;;5.45;51.58
35507;BME280;36461;52.018;21.036;2023-03-18T08:01:22;100747.05;;;5.52;51.22
35507;BME280;36461;52.018;21.036;2023-03-18T08:03:50;100748.20;;;5.61;51.40
35507;BME280;36461;52.018;21.036;2023-03-18T08:06:18;100746.95;;;5.70;51.04
35507;BME280;36461;52.018;21.036;2023-03-18T08:08:47;100747.77;;;5.76;50.55
35507;BME280;36461;52.018;21.036;2023-03-18T08:11:16;100747.20;;;5.83;50.52
35507;BME280;36461;52.018;21.036;2023-03-18T08:13:43;100741.30;;;5.90;50.54
35507;BME280;36461;52.018;21.036;2023-03-18T08:16:11;100744.89;;;5.97;50.37
35507;BME280;36461;52.018;21.036;2023-03-18T08:18:40;100737.45;;;6.04;50.03
35507;BME280;36461;52.018;21.036;2023-03-18T08:21:08;100736.02;;;6.12;50.02
35507;BME280;36461;52.018;21.036;2023-03-18T08:23:37;100738.70;;;6.21;50.19
35507;BME280;36461;52.018;21.036;2023-03-18T08:26:05;100737.08;;;6.31;50.28
35507;BME280;36461;52.018;21.036;2023-03-18T08:28:33;100736.45;;;6.42;50.08
35507;BME280;36461;52.018;21.036;2023-03-18T08:31:01;100736.70;;;6.52;49.44
35507;BME280;36461;52.018;21.036;2023-03-18T08:33:30;100732.14;;;6.61;49.05
35507;BME280;36461;52.018;21.036;2023-03-18T08:35:58;100733.24;;;6.70;48.86
35507;BME280;36461;52.018;21.036;2023-03-18T08:38:26;100729.52;;;6.80;48.46
35507;BME280;36461;52.018;21.036;2023-03-18T08:40:54;100728.41;;;6.88;48.30
35507;BME280;36461;52.018;21.036;2023-03-18T08:43:23;100721.77;;;6.97;48.39
35507;BME280;36461;52.018;21.036;2023-03-18T08:45:53;100718.67;;;7.11;48.09
35507;BME280;36461;52.018;21.036;2023-03-18T08:48:22;100721.26;;;7.23;47.93
35507;BME280;36461;52.018;21.036;2023-03-18T08:50:50;100714.20;;;7.36;47.81
35507;BME280;36461;52.018;21.036;2023-03-18T08:53:19;100713.38;;;7.47;47.31
35507;BME280;36461;52.018;21.036;2023-03-18T08:55:47;100712.20;;;7.58;47.04
35507;BME280;36461;52.018;21.036;2023-03-18T08:58:15;100707.56;;;7.67;46.52
35507;BME280;36461;52.018;21.036;2023-03-18T09:00:44;100711.72;;;7.78;46.23
35507;BME280;36461;52.018;21.036;2023-03-18T09:03:12;100706.40;;;7.87;45.94
35507;BME280;36461;52.018;21.036;2023-03-18T09:05:40;100703.31;;;7.97;45.39
35507;BME280;36461;52.018;21.036;2023-03-18T09:08:08;100699.52;;;8.07;44.94
35507;BME280;36461;52.018;21.036;2023-03-18T09:10:36;100701.80;;;8.15;45.24
35507;BME280;36461;52.018;21.036;2023-03-18T09:13:04;100695.30;;;8.23;45.28
35507;BME280;36461;52.018;21.036;2023-03-18T09:15:32;100696.35;;;8.31;44.64
35507;BME280;36461;52.018;21.036;2023-03-18T09:18:01;100693.98;;;8.38;44.34
35507;BME280;36461;52.018;21.036;2023-03-18T09:20:40;100694.74;;;8.44;44.27
35507;BME280;36461;52.018;21.036;2023-03-18T09:23:08;100696.92;;;8.50;44.28
35507;BME280;36461;52.018;21.036;2023-03-18T09:25:37;100693.52;;;8.57;43.92
35507;BME280;36461;52.018;21.036;2023-03-18T09:28:05;100692.00;;;8.63;43.99
35507;BME280;36461;52.018;21.036;2023-03-18T09:30:33;100689.95;;;8.71;44.08
35507;BME280;36461;52.018;21.036;2023-03-18T09:33:02;100690.41;;;8.83;44.19
35507;BME280;36461;52.018;21.036;2023-03-18T09:35:33;100688.98;;;8.94;43.74
35507;BME280;36461;52.018;21.036;2023-03-18T09:38:02;100686.75;;;9.01;43.39
35507;BME280;36461;52.018;21.036;2023-03-18T09:40:36;100686.61;;;9.08;43.04
35507;BME280;36461;52.018;21.036;2023-03-18T09:43:29;100684.21;;;9.16;42.79
35507;BME280;36461;52.018;21.036;2023-03-18T09:46:20;100684.06;;;9.22;42.47
35507;BME280;36461;52.018;21.036;2023-03-18T09:54:15;100672.70;;;9.45;42.29
35507;BME280;36461;52.018;21.036;2023-03-18T09:56:47;100670.94;;;9.53;42.06
35507;BME280;36461;52.018;21.036;2023-03-18T10:02:19;100667.10;;;9.84;41.90
35507;BME280;36461;52.018;21.036;2023-03-18T10:04:53;100667.14;;;9.97;41.02
35507;BME280;36461;52.018;21.036;2023-03-18T10:07:35;100662.80;;;10.04;40.77
35507;BME280;36461;52.018;21.036;2023-03-18T10:10:08;100667.05;;;10.14;40.83
35507;BME280;36461;52.018;21.036;2023-03-18T10:12:42;100662.44;;;10.25;40.59
35507;BME280;36461;52.018;21.036;2023-03-18T10:15:28;100661.52;;;10.34;40.46
35507;BME280;36461;52.018;21.036;2023-03-18T10:18:08;100663.86;;;10.44;39.95
35507;BME280;36461;52.018;21.036;2023-03-18T10:33:03;100645.68;;;10.99;39.34
35507;BME280;36461;52.018;21.036;2023-03-18T10:35:47;100645.13;;;11.12;38.70
35507;BME280;36461;52.018;21.036;2023-03-18T10:40:50;100642.09;;;11.32;38.40
35507;BME280;36461;52.018;21.036;2023-03-18T10:43:22;100639.34;;;11.42;38.53
35507;BME280;36461;52.018;21.036;2023-03-18T10:46:01;100635.05;;;11.52;38.06
35507;BME280;36461;52.018;21.036;2023-03-18T10:48:41;100628.85;;;11.56;37.82
35507;BME280;36461;52.018;21.036;2023-03-18T10:56:13;100626.91;;;11.68;37.87
35507;BME280;36461;52.018;21.036;2023-03-18T10:58:42;100626.18;;;11.74;37.29
35507;BME280;36461;52.018;21.036;2023-03-18T11:01:13;100631.66;;;11.77;37.24
35507;BME280;36461;52.018;21.036;2023-03-18T11:03:52;100631.16;;;11.75;36.89
35507;BME280;36461;52.018;21.036;2023-03-18T11:06:25;100626.91;;;11.73;36.71
35507;BME280;36461;52.018;21.036;2023-03-18T11:09:19;100622.66;;;11.71;36.37
35507;BME280;36461;52.018;21.036;2023-03-18T11:11:48;100615.73;;;11.66;36.42
35507;BME280;36461;52.018;21.036;2023-03-18T11:14:21;100611.15;;;11.67;36.49
35507;BME280;36461;52.018;21.036;2023-03-18T11:17:00;100610.44;;;11.68;36.23
35507;BME280;36461;52.018;21.036;2023-03-18T11:19:37;100606.20;;;11.65;35.94
35507;BME280;36461;52.018;21.036;2023-03-18T11:24:39;100600.91;;;11.63;35.71
35507;BME280;36461;52.018;21.036;2023-03-18T11:29:43;100599.69;;;11.63;36.09
35507;BME280;36461;52.018;21.036;2023-03-18T11:32:26;100600.96;;;11.61;35.63
35507;BME280;36461;52.018;21.036;2023-03-18T11:35:02;100599.46;;;11.59;35.85
35507;BME280;36461;52.018;21.036;2023-03-18T11:37:35;100596.63;;;11.61;36.10
35507;BME280;36461;52.018;21.036;2023-03-18T11:42:41;100592.75;;;11.57;35.70
35507;BME280;36461;52.018;21.036;2023-03-18T11:47:58;100588.91;;;11.53;35.35
35507;BME280;36461;52.018;21.036;2023-03-18T11:50:37;100589.15;;;11.51;35.17
35507;BME280;36461;52.018;21.036;2023-03-18T11:53:15;100582.05;;;11.51;35.64
35507;BME280;36461;52.018;21.036;2023-03-18T11:58:57;100578.59;;;11.56;35.04
35507;BME280;36461;52.018;21.036;2023-03-18T12:07:20;100583.13;;;11.71;35.39
35507;BME280;36461;52.018;21.036;2023-03-18T12:21:16;100580.53;;;11.86;35.64
35507;BME280;36461;52.018;21.036;2023-03-18T12:23:58;100583.11;;;11.91;35.77
35507;BME280;36461;52.018;21.036;2023-03-18T12:27:10;100584.47;;;11.99;35.48
35507;BME280;36461;52.018;21.036;2023-03-18T12:32:25;100567.63;;;11.99;35.12
35507;BME280;36461;52.018;21.036;2023-03-18T12:40:23;100564.34;;;12.04;35.67
35507;BME280;36461;52.018;21.036;2023-03-18T12:45:39;100563.25;;;12.10;35.03
35507;BME280;36461;52.018;21.036;2023-03-18T12:48:38;100559.56;;;12.11;35.15
35507;BME280;36461;52.018;21.036;2023-03-18T12:51:14;100556.84;;;12.14;35.27
35507;BME280;36461;52.018;21.036;2023-03-18T12:53:52;100554.97;;;12.19;35.24
35507;BME280;36461;52.018;21.036;2023-03-18T12:56:24;100555.58;;;12.21;35.19
35507;BME280;36461;52.018;21.036;2023-03-18T12:59:04;100553.26;;;12.23;35.01
35507;BME280;36461;52.018;21.036;2023-03-18T13:02:04;100552.71;;;12.23;34.68
35507;BME280;36461;52.018;21.036;2023-03-18T13:04:30;100547.45;;;12.20;34.48
35507;BME280;36461;52.018;21.036;2023-03-18T13:07:15;100545.27;;;12.18;34.89
35507;BME280;36461;52.018;21.036;2023-03-18T13:09:50;100550.79;;;12.23;35.02
35507;BME280;36461;52.018;21.036;2023-03-18T13:12:25;100543.15;;;12.29;35.56
35507;BME280;36461;52.018;21.036;2023-03-18T13:17:42;100534.77;;;12.39;35.12
35507;BME280;36461;52.018;21.036;2023-03-18T13:20:23;100533.76;;;12.43;35.26
35507;BME280;36461;52.018;21.036;2023-03-18T13:23:14;100528.73;;;12.48;35.20
35507;BME280;36461;52.018;21.036;2023-03-18T13:26:01;100529.52;;;12.50;34.64
35507;BME280;36461;52.018;21.036;2023-03-18T13:29:01;100530.34;;;12.47;34.63
35507;BME280;36461;52.018;21.036;2023-03-18T13:37:14;100522.86;;;12.38;35.00
35507;BME280;36461;52.018;21.036;2023-03-18T13:42:29;100519.12;;;12.31;35.28
35507;BME280;36461;52.018;21.036;2023-03-18T13:45:14;100514.24;;;12.27;35.12
35507;BME280;36461;52.018;21.036;2023-03-18T13:47:55;100513.98;;;12.19;35.27
35507;BME280;36461;52.018;21.036;2023-03-18T13:50:30;100511.52;;;12.16;35.47
35507;BME280;36461;52.018;21.036;2023-03-18T13:52:59;100513.25;;;12.16;35.36
35507;BME280;36461;52.018;21.036;2023-03-18T14:00:43;100501.79;;;12.16;35.61
35507;BME280;36461;52.018;21.036;2023-03-18T14:03:30;100500.43;;;12.15;35.49
35507;BME280;36461;52.018;21.036;2023-03-18T14:13:59;100488.67;;;12.19;35.41
35507;BME280;36461;52.018;21.036;2023-03-18T14:16:47;100492.04;;;12.22;35.45
35507;BME280;36461;52.018;21.036;2023-03-18T14:19:22;100496.55;;;12.22;35.54
35507;BME280;36461;52.018;21.036;2023-03-18T14:22:27;100492.89;;;12.22;35.51
35507;BME280;36461;52.018;21.036;2023-03-18T14:25:22;100494.06;;;12.23;35.34
35507;BME280;36461;52.018;21.036;2023-03-18T14:36:03;100483.23;;;12.12;35.65
35507;BME280;36461;52.018;21.036;2023-03-18T14:41:16;100477.25;;;12.04;35.53
35507;BME280;36461;52.018;21.036;2023-03-18T14:43:57;100476.77;;;12.03;35.90
35507;BME280;36461;52.018;21.036;2023-03-18T14:46:32;100474.39;;;12.02;35.84
35507;BME280;36461;52.018;21.036;2023-03-18T14:52:05;100472.17;;;12.01;36.04
35507;BME280;36461;52.018;21.036;2023-03-18T14:54:41;100469.14;;;12.03;36.15
35507;BME280;36461;52.018;21.036;2023-03-18T14:57:10;100464.56;;;12.05;36.06
35507;BME280;36461;52.018;21.036;2023-03-18T14:59:38;100463.98;;;12.06;36.02
35507;BME280;36461;52.018;21.036;2023-03-18T15:02:21;100462.34;;;12.09;36.23
35507;BME280;36461;52.018;21.036;2023-03-18T15:04:54;100459.77;;;12.12;36.22
35507;BME280;36461;52.018;21.036;2023-03-18T15:07:32;100458.71;;;12.13;36.51
35507;BME280;36461;52.018;21.036;2023-03-18T15:10:21;100460.92;;;12.14;36.56